Time;durP1;ratioP1;P1;durP2;ratioP2;P2;SDS_P1;SDS_P2;PMS_P1;PMS_P2;Temp;Humidity;BMP_temperature;BMP_pressure;BME280_temperature;BME280_humidity;BME280_pressure;Samples;Min_cycle;Max_cycle;Signal;HPM_P1;HPM_P2
2021/07/06 00:00:30;;;;;;;;;;;;;;;22.75;73.46;99734.64;1695023;84;21145;-78
2021/07/06 00:02:56;;;;;;;;;;;;;;;22.87;73.02;99738.05;1693748;83;20209;-77
2021/07/06 00:05:21;;;;;;;;;;;;;;;22.90;72.82;99740.76;1692867;83;20177;-78
2021/07/06 00:07:47;;;;;;;;;;;;;;;22.79;73.21;99745.72;1690661;83;20181;-78
2021/07/06 00:10:13;;;;;;;;;;;;;;;22.74;73.50;99745.12;1691934;83;20358;-78
2021/07/06 00:12:39;;;;;;;;;;;;;;;22.69;73.64;99743.70;1690657;83;21921;-78
2021/07/06 00:15:06;;;;;;;;;;;;;;;22.73;73.27;99741.62;1689170;83;20160;-78
2021/07/06 00:17:31;;;;;;;;;;;;;;;22.74;73.17;99746.46;1690670;83;20202;-78
2021/07/06 00:19:57;;;;;;;;;;;;;;;22.89;72.97;99746.69;1691115;83;20158;-78
2021/07/06 00:22:23;;;;;;;;;;;;;;;22.98;72.41;99753.82;1692263;84;20164;-79
2021/07/06 00:24:49;;;;;;;;;;;;;;;23.20;71.75;99756.56;1689877;83;21052;-80
2021/07/06 00:27:14;;;;;;;;;;;;;;;23.11;71.64;99752.67;1688290;84;20279;-77
2021/07/06 00:29:40;;;;;;;;;;;;;;;23.21;71.46;99758.72;1673130;83;20141;-78
2021/07/06 00:32:06;;;;;;;;;;;;;;;23.26;71.19;99756.11;1615381;85;20666;-77
2021/07/06 00:34:32;;;;;;;;;;;;;;;23.32;70.97;99758.31;1592067;89;20238;-78
2021/07/06 00:36:57;;;;;;;;;;;;;;;23.26;71.00;99766.34;1604721;87;21078;-78
2021/07/06 00:39:23;;;;;;;;;;;;;;;23.22;71.07;99760.36;1599967;87;20294;-78
2021/07/06 00:42:02;;;;;;;;;;;;;;;23.28;70.93;99760.16;1596733;88;20166;-78
2021/07/06 00:44:42;;;;;;;;;;;;;;;23.24;71.02;99769.83;1605251;88;20633;-79
2021/07/06 00:47:21;;;;;;;;;;;;;;;23.21;71.04;99764.94;1622491;86;20197;-79
2021/07/06 00:49:47;;;;;;;;;;;;;;;23.20;71.16;99770.03;1611539;87;21989;-79
2021/07/06 00:52:12;;;;;;;;;;;;;;;23.24;70.69;99768.48;1622512;87;20158;-79
2021/07/06 00:54:38;;;;;;;;;;;;;;;23.10;71.02;99776.62;1608690;87;20185;-79
2021/07/06 00:57:04;;;;;;;;;;;;;;;23.02;71.27;99772.98;1618517;87;20194;-79
2021/07/06 00:59:29;;;;;;;;;;;;;;;22.99;71.47;99768.09;1605054;87;20213;-79
2021/07/06 01:01:55;;;;;;;;;;;;;;;22.96;71.52;99769.39;1617833;85;21039;-79
2021/07/06 01:04:20;;;;;;;;;;;;;;;22.93;71.54;99776.11;1620628;87;20516;-79
2021/07/06 01:06:46;;;;;;;;;;;;;;;22.71;72.51;99776.02;1629598;85;20202;-78
2021/07/06 01:09:11;;;;;;;;;;;;;;;22.74;72.30;99776.07;1605255;87;20174;-78
2021/07/06 01:11:37;;;;;;;;;;;;;;;22.72;72.14;99774.17;1609285;86;20190;-79
2021/07/06 01:14:03;;;;;;;;;;;;;;;22.49;72.92;99784.02;1614096;87;21084;-78
2021/07/06 01:16:28;;;;;;;;;;;;;;;22.55;72.77;99788.43;1621244;86;20209;-78
2021/07/06 01:18:54;;;;;;;;;;;;;;;22.43;73.13;99785.00;1628918;85;20177;-78
2021/07/06 01:21:20;;;;;;;;;;;;;;;22.44;73.18;99789.33;1623664;85;20533;-79
2021/07/06 01:23:45;;;;;;;;;;;;;;;22.37;73.59;99791.35;1618637;86;20538;-81
2021/07/06 01:26:11;;;;;;;;;;;;;;;22.47;72.98;99788.03;1620405;86;21096;-80
2021/07/06 01:28:38;;;;;;;;;;;;;;;22.54;73.04;99797.58;1621260;86;20348;-80
2021/07/06 01:31:03;;;;;;;;;;;;;;;22.58;72.78;99795.20;1620156;86;20212;-81
2021/07/06 01:33:30;;;;;;;;;;;;;;;22.60;72.41;99795.77;1656765;85;20569;-80
2021/07/06 01:36:01;;;;;;;;;;;;;;;22.63;72.18;99795.82;1654865;85;20246;-80
2021/07/06 01:38:27;;;;;;;;;;;;;;;22.68;71.93;99781.09;1655143;86;20163;-81
2021/07/06 01:40:52;;;;;;;;;;;;;;;22.73;71.61;99781.16;1654314;85;20370;-81
2021/07/06 01:43:18;;;;;;;;;;;;;;;22.64;71.59;99777.25;1654998;85;20147;-80
2021/07/06 01:45:43;;;;;;;;;;;;;;;22.68;71.52;99767.63;1654747;84;20809;-80
2021/07/06 01:48:09;;;;;;;;;;;;;;;22.65;71.49;99768.12;1655112;84;20163;-80
2021/07/06 01:50:37;;;;;;;;;;;;;;;22.69;71.37;99767.39;1654253;85;21162;-80
2021/07/06 01:53:07;;;;;;;;;;;;;;;22.80;71.22;99768.36;1625284;85;20194;-80
2021/07/06 01:55:36;;;;;;;;;;;;;;;22.75;71.27;99775.02;1597892;88;20247;-80
2021/07/06 01:58:03;;;;;;;;;;;;;;;22.58;71.86;99787.14;1623705;86;20178;-80
2021/07/06 02:00:30;;;;;;;;;;;;;;;22.46;72.37;99785.86;1593635;88;20355;-80
2021/07/06 02:02:56;;;;;;;;;;;;;;;22.52;72.12;99792.15;1621138;85;21104;-80
2021/07/06 02:05:27;;;;;;;;;;;;;;;22.33;72.70;99792.38;1620029;85;20185;-80
2021/07/06 02:07:53;;;;;;;;;;;;;;;22.42;72.52;99792.80;1650436;84;20335;-81
2021/07/06 02:10:19;;;;;;;;;;;;;;;22.44;72.17;99787.17;1653762;86;20162;-80
2021/07/06 02:12:45;;;;;;;;;;;;;;;22.48;72.13;99790.48;1644884;86;20202;-81
2021/07/06 02:15:12;;;;;;;;;;;;;;;22.51;71.95;99792.69;1653775;85;21171;-80
2021/07/06 02:17:38;;;;;;;;;;;;;;;22.46;72.04;99796.63;1644829;86;20155;-80
2021/07/06 02:20:08;;;;;;;;;;;;;;;22.40;72.16;99807.00;1652784;84;20539;-79
2021/07/06 02:22:35;;;;;;;;;;;;;;;22.18;72.89;99808.21;1649680;86;20202;-79
2021/07/06 02:25:00;;;;;;;;;;;;;;;22.13;73.06;99810.27;1656221;84;20202;-80
2021/07/06 02:27:26;;;;;;;;;;;;;;;22.07;73.27;99808.55;1652180;86;21195;-78
2021/07/06 02:29:51;;;;;;;;;;;;;;;22.11;73.33;99809.71;1646647;85;20480;-79
2021/07/06 02:32:17;;;;;;;;;;;;;;;22.04;73.67;99810.37;1649787;86;20309;-77
2021/07/06 02:34:43;;;;;;;;;;;;;;;22.20;73.10;99808.27;1647052;84;20261;-79
2021/07/06 02:37:08;;;;;;;;;;;;;;;22.21;72.79;99816.60;1656263;86;20733;-79
2021/07/06 02:39:34;;;;;;;;;;;;;;;22.29;72.76;99819.97;1647909;84;21207;-79
2021/07/06 02:41:59;;;;;;;;;;;;;;;22.29;72.58;99823.47;1650172;86;20149;-79
2021/07/06 02:44:38;;;;;;;;;;;;;;;22.32;72.76;99823.55;1663204;84;20609;-79
2021/07/06 02:47:04;;;;;;;;;;;;;;;22.34;72.49;99827.64;1667364;84;20208;-79
2021/07/06 02:49:29;;;;;;;;;;;;;;;22.40;72.39;99824.49;1673382;84;20199;-80
2021/07/06 02:51:55;;;;;;;;;;;;;;;22.46;72.05;99831.59;1667702;84;21068;-79
2021/07/06 02:54:20;;;;;;;;;;;;;;;22.37;72.44;99839.77;1670004;84;20258;-80
2021/07/06 02:56:46;;;;;;;;;;;;;;;22.33;72.48;99842.68;1667408;85;20159;-80
2021/07/06 02:59:12;;;;;;;;;;;;;;;22.34;72.35;99845.64;1662803;84;21327;-80
2021/07/06 03:01:37;;;;;;;;;;;;;;;22.36;72.34;99838.16;1664341;83;20765;-80
2021/07/06 03:04:03;;;;;;;;;;;;;;;22.30;72.47;99841.79;1662259;84;21893;-80
2021/07/06 03:06:30;;;;;;;;;;;;;;;22.31;72.48;99838.05;1668252;84;20262;-80
2021/07/06 03:08:56;;;;;;;;;;;;;;;22.29;72.52;99843.64;1670541;84;20206;-80
2021/07/06 03:11:22;;;;;;;;;;;;;;;22.33;72.49;99840.80;1674035;84;20202;-79
2021/07/06 03:13:48;;;;;;;;;;;;;;;22.28;72.68;99845.23;1658627;84;20216;-80
2021/07/06 03:16:13;;;;;;;;;;;;;;;22.34;72.54;99847.82;1663708;84;21062;-80
2021/07/06 03:18:39;;;;;;;;;;;;;;;22.31;72.48;99844.78;1663583;84;20202;-78
2021/07/06 03:21:05;;;;;;;;;;;;;;;22.21;72.89;99847.53;1678587;85;20484;-79
2021/07/06 03:23:31;;;;;;;;;;;;;;;22.06;73.43;99853.97;1657010;84;20156;-79
2021/07/06 03:25:56;;;;;;;;;;;;;;;22.09;73.37;99854.83;1676205;84;20245;-80
2021/07/06 03:28:22;;;;;;;;;;;;;;;22.11;73.25;99851.90;1668690;84;21060;-80
2021/07/06 03:30:47;;;;;;;;;;;;;;;22.08;73.40;99851.88;1662520;84;20465;-80
2021/07/06 03:33:13;;;;;;;;;;;;;;;21.95;73.70;99856.17;1668398;85;20177;-80
2021/07/06 03:35:39;;;;;;;;;;;;;;;22.02;73.61;99862.24;1664354;84;20753;-80
2021/07/06 03:38:04;;;;;;;;;;;;;;;21.94;73.78;99858.56;1676479;85;20785;-80
2021/07/06 03:40:30;;;;;;;;;;;;;;;22.10;73.31;99861.85;1667332;84;21115;-79
2021/07/06 03:42:56;;;;;;;;;;;;;;;22.19;73.02;99859.07;1680642;85;20502;-79
2021/07/06 03:45:22;;;;;;;;;;;;;;;22.36;72.33;99862.38;1656921;84;20150;-79
2021/07/06 03:47:48;;;;;;;;;;;;;;;22.54;71.87;99870.24;1652322;86;20632;-79
2021/07/06 03:50:19;;;;;;;;;;;;;;;22.50;71.49;99867.73;1648664;85;20226;-79
2021/07/06 03:52:49;;;;;;;;;;;;;;;22.68;71.35;99869.92;1637673;86;21211;-79
2021/07/06 03:55:15;;;;;;;;;;;;;;;22.83;70.43;99866.67;1638129;85;20209;-80
2021/07/06 03:57:41;;;;;;;;;;;;;;;22.76;70.58;99868.16;1649371;86;20730;-80
2021/07/06 04:00:09;;;;;;;;;;;;;;;22.72;70.61;99873.77;1647921;86;20169;-80
2021/07/06 04:02:35;;;;;;;;;;;;;;;22.58;70.87;99880.79;1628455;86;20196;-80
2021/07/06 04:05:02;;;;;;;;;;;;;;;22.70;70.70;99880.73;1642315;86;21211;-80
2021/07/06 04:07:27;;;;;;;;;;;;;;;22.61;71.11;99892.12;1645782;85;20175;-80
2021/07/06 04:09:53;;;;;;;;;;;;;;;22.66;71.11;99889.00;1637758;86;20168;-80
2021/07/06 04:12:18;;;;;;;;;;;;;;;22.69;71.05;99893.09;1641461;86;20193;-80
2021/07/06 04:14:44;;;;;;;;;;;;;;;22.72;71.01;99895.30;1647308;86;20190;-81
2021/07/06 04:17:11;;;;;;;;;;;;;;;22.54;71.79;99892.28;1644556;85;21180;-80
2021/07/06 04:19:36;;;;;;;;;;;;;;;22.77;70.86;99895.37;1647806;85;20167;-81
2021/07/06 04:22:02;;;;;;;;;;;;;;;22.67;71.24;99888.46;1645503;86;20158;-81
2021/07/06 04:24:29;;;;;;;;;;;;;;;22.70;71.12;99889.32;1631053;86;20259;-81
2021/07/06 04:26:55;;;;;;;;;;;;;;;22.57;71.47;99895.30;1643509;85;20149;-81
2021/07/06 04:29:20;;;;;;;;;;;;;;;22.51;71.95;99897.64;1653091;85;21185;-80
2021/07/06 04:31:46;;;;;;;;;;;;;;;22.62;71.33;99901.30;1652724;85;20204;-80
2021/07/06 04:34:12;;;;;;;;;;;;;;;22.58;71.73;99902.32;1642942;85;20201;-79
2021/07/06 04:36:37;;;;;;;;;;;;;;;22.64;71.43;99904.59;1647950;86;20680;-80
2021/07/06 04:39:03;;;;;;;;;;;;;;;22.59;71.57;99909.34;1652642;85;20280;-80
2021/07/06 04:41:29;;;;;;;;;;;;;;;22.64;71.44;99906.44;1647946;86;21249;-80
2021/07/06 04:43:54;;;;;;;;;;;;;;;22.64;71.35;99905.09;1648011;85;20157;-80
2021/07/06 04:46:24;;;;;;;;;;;;;;;22.68;71.20;99898.18;1652913;86;20225;-80
2021/07/06 04:48:47;;;;;;;;;;;;;;;22.91;70.21;99906.66;1653347;85;20165;-80
2021/07/06 04:51:14;;;;;;;;;;;;;;;22.91;69.95;99907.45;1647812;86;20559;-81
2021/07/06 04:53:44;;;;;;;;;;;;;;;23.02;69.67;99908.98;1633062;86;22062;-80
2021/07/06 04:56:11;;;;;;;;;;;;;;;23.21;69.23;99910.41;1654130;85;20169;-81
2021/07/06 04:58:37;;;;;;;;;;;;;;;23.10;69.39;99909.95;1646560;85;20185;-79
2021/07/06 05:01:04;;;;;;;;;;;;;;;23.24;68.92;99915.31;1643649;85;20170;-79
2021/07/06 05:03:31;;;;;;;;;;;;;;;23.30;68.55;99914.33;1651822;86;20213;-80
2021/07/06 05:05:57;;;;;;;;;;;;;;;23.26;68.17;99917.22;1649664;86;21132;-81
2021/07/06 05:08:23;;;;;;;;;;;;;;;23.36;67.64;99921.12;1647426;84;20327;-79
2021/07/06 05:10:49;;;;;;;;;;;;;;;23.37;67.78;99922.23;1649271;83;20225;-78
2021/07/06 05:13:15;;;;;;;;;;;;;;;23.22;67.57;99924.69;1684628;85;20243;-80
2021/07/06 05:15:40;;;;;;;;;;;;;;;23.20;67.78;99920.89;1672510;84;20167;-79
2021/07/06 05:18:06;;;;;;;;;;;;;;;23.40;66.81;99928.48;1658431;83;21156;-80
2021/07/06 05:20:31;;;;;;;;;;;;;;;23.48;66.34;99917.81;1679008;83;20167;-80
2021/07/06 05:22:57;;;;;;;;;;;;;;;23.57;65.75;99922.23;1678619;84;20521;-80
2021/07/06 05:25:23;;;;;;;;;;;;;;;23.78;65.59;99920.64;1672018;83;20518;-79
2021/07/06 05:27:48;;;;;;;;;;;;;;;23.83;65.43;99923.40;1678616;85;20183;-80
2021/07/06 05:30:15;;;;;;;;;;;;;;;24.03;64.94;99926.12;1655113;84;21060;-80
2021/07/06 05:32:40;;;;;;;;;;;;;;;24.09;64.30;99927.81;1665947;83;20143;-76
2021/07/06 05:35:08;;;;;;;;;;;;;;;24.24;64.19;99925.81;1666320;83;20187;-77
2021/07/06 05:37:35;;;;;;;;;;;;;;;24.26;63.92;99927.20;1677800;85;20235;-78
2021/07/06 05:40:06;;;;;;;;;;;;;;;24.40;63.12;99936.27;1642728;83;20789;-76
2021/07/06 05:42:35;;;;;;;;;;;;;;;24.29;63.73;99934.79;1628845;86;20690;-76
2021/07/06 05:45:01;;;;;;;;;;;;;;;24.35;63.07;99935.13;1631456;86;20166;-76
2021/07/06 05:47:26;;;;;;;;;;;;;;;24.55;62.56;99935.89;1627288;86;20229;-77
2021/07/06 05:49:52;;;;;;;;;;;;;;;24.49;62.48;99930.70;1631027;86;20153;-78
2021/07/06 05:52:17;;;;;;;;;;;;;;;24.47;62.62;99935.52;1632283;86;20735;-77
2021/07/06 05:54:43;;;;;;;;;;;;;;;24.50;62.22;99935.01;1633120;86;21174;-77
2021/07/06 05:57:09;;;;;;;;;;;;;;;24.77;61.66;99939.65;1627051;86;20398;-79
2021/07/06 05:59:34;;;;;;;;;;;;;;;24.87;61.46;99939.72;1641963;85;20496;-79
2021/07/06 06:02:00;;;;;;;;;;;;;;;25.15;61.15;99936.45;1641082;86;20429;-79
2021/07/06 06:04:27;;;;;;;;;;;;;;;25.33;60.54;99944.19;1640788;85;20161;-79
2021/07/06 06:06:53;;;;;;;;;;;;;;;25.37;59.76;99935.85;1647093;85;21223;-79
2021/07/06 06:09:18;;;;;;;;;;;;;;;25.36;59.98;99943.67;1644688;86;20593;-79
2021/07/06 06:11:44;;;;;;;;;;;;;;;25.45;59.93;99937.26;1644373;85;20272;-79
2021/07/06 06:14:09;;;;;;;;;;;;;;;25.42;59.42;99942.63;1648490;85;20402;-79
2021/07/06 06:16:35;;;;;;;;;;;;;;;25.51;59.24;99943.49;1636282;86;20251;-79
2021/07/06 06:19:00;;;;;;;;;;;;;;;25.67;58.33;99943.88;1633196;86;21134;-79
2021/07/06 06:21:26;;;;;;;;;;;;;;;25.61;58.02;99943.57;1646877;86;20133;-80
2021/07/06 06:23:52;;;;;;;;;;;;;;;25.63;58.29;99945.47;1653288;86;20149;-81
2021/07/06 06:26:18;;;;;;;;;;;;;;;25.84;58.33;99948.27;1641327;86;20229;-78
2021/07/06 06:28:43;;;;;;;;;;;;;;;25.87;58.10;99952.64;1640257;86;20239;-82
2021/07/06 06:31:10;;;;;;;;;;;;;;;26.03;57.06;99945.44;1644588;85;21264;-88
2021/07/06 06:33:35;;;;;;;;;;;;;;;26.09;56.31;99947.09;1642688;86;20521;-86
2021/07/06 06:36:01;;;;;;;;;;;;;;;26.17;55.45;99947.67;1632992;86;20141;-87
2021/07/06 06:38:27;;;;;;;;;;;;;;;26.09;55.42;99943.03;1645599;86;20674;-86
2021/07/06 06:40:52;;;;;;;;;;;;;;;26.13;55.64;99945.48;1649235;86;20161;-87
2021/07/06 06:43:18;;;;;;;;;;;;;;;26.13;55.47;99950.06;1631039;86;21230;-86
2021/07/06 06:45:45;;;;;;;;;;;;;;;26.22;55.18;99942.27;1664248;82;20328;-84
2021/07/06 06:48:11;;;;;;;;;;;;;;;26.24;54.57;99948.22;1695340;84;20225;-84
2021/07/06 06:50:36;;;;;;;;;;;;;;;26.42;54.54;99950.44;1694080;84;20157;-84
2021/07/06 06:53:02;;;;;;;;;;;;;;;26.21;54.19;99954.16;1690020;83;20733;-84
2021/07/06 06:55:28;;;;;;;;;;;;;;;26.43;54.33;99953.44;1642353;84;21162;-83
2021/07/06 06:57:53;;;;;;;;;;;;;;;26.45;53.51;99955.87;1642846;86;20960;-85
2021/07/06 07:00:19;;;;;;;;;;;;;;;26.60;52.75;99959.14;1633893;84;20298;-81
2021/07/06 07:02:44;;;;;;;;;;;;;;;26.70;52.54;99956.50;1647556;84;20751;-82
2021/07/06 07:05:15;;;;;;;;;;;;;;;26.87;51.84;99961.67;1648129;85;20175;-81
2021/07/06 07:07:38;;;;;;;;;;;;;;;27.01;51.67;99955.98;1638380;84;20188;-79
2021/07/06 07:10:06;;;;;;;;;;;;;;;27.19;51.86;99961.42;1634760;84;20193;-86
2021/07/06 07:12:31;;;;;;;;;;;;;;;27.27;51.72;99961.94;1656547;86;20276;-88
2021/07/06 07:14:57;;;;;;;;;;;;;;;27.43;51.32;99959.53;1658979;86;20228;-90
2021/07/06 07:17:23;;;;;;;;;;;;;;;27.54;51.71;99959.77;1660058;86;20172;-88
2021/07/06 07:19:48;;;;;;;;;;;;;;;27.43;51.43;99954.11;1657802;85;21158;-90
2021/07/06 07:22:14;;;;;;;;;;;;;;;27.61;51.22;99954.61;1658982;86;20210;-86
2021/07/06 07:24:40;;;;;;;;;;;;;;;27.53;51.63;99960.88;1660099;86;20343;-88
2021/07/06 07:27:06;;;;;;;;;;;;;;;27.63;51.41;99961.95;1656181;85;20478;-89
2021/07/06 07:29:31;;;;;;;;;;;;;;;27.75;51.18;99951.61;1652592;85;20246;-87
2021/07/06 07:31:57;;;;;;;;;;;;;;;27.70;51.57;99961.94;1656254;85;21099;-88
2021/07/06 07:34:22;;;;;;;;;;;;;;;27.56;51.10;99964.41;1644365;84;20176;-88
2021/07/06 07:36:48;;;;;;;;;;;;;;;27.58;51.11;99958.15;1626286;85;20190;-91
2021/07/06 07:39:14;;;;;;;;;;;;;;;27.63;50.73;99957.33;1634644;84;20187;-91
2021/07/06 07:41:39;;;;;;;;;;;;;;;27.67;51.03;99960.30;1649284;85;20188;-94
2021/07/06 07:44:05;;;;;;;;;;;;;;;27.53;51.38;99961.41;1662091;83;21106;-88
2021/07/06 07:46:31;;;;;;;;;;;;;;;27.56;50.85;99960.33;1651929;84;20674;-92
2021/07/06 07:48:59;;;;;;;;;;;;;;;27.66;50.14;99972.25;1658792;84;20188;-96
2021/07/06 07:51:27;;;;;;;;;;;;;;;27.76;50.22;99961.36;1662621;84;20180;-92
2021/07/06 07:53:54;;;;;;;;;;;;;;;27.97;50.71;99964.03;1688439;83;20206;-92
2021/07/06 07:56:19;;;;;;;;;;;;;;;27.81;50.23;99969.50;1651673;84;20869;-92
2021/07/06 07:58:45;;;;;;;;;;;;;;;27.74;50.67;99966.25;1630567;84;20504;-93
2021/07/06 08:01:10;;;;;;;;;;;;;;;27.72;49.83;99971.95;1650476;86;20263;-92
2021/07/06 08:03:36;;;;;;;;;;;;;;;27.88;49.85;99978.15;1647038;85;20482;-96
2021/07/06 08:06:02;;;;;;;;;;;;;;;28.12;48.95;99982.98;1692436;83;20289;-91
2021/07/06 08:08:28;;;;;;;;;;;;;;;28.12;49.10;99980.27;1688269;83;21026;-93
2021/07/06 08:10:53;;;;;;;;;;;;;;;28.14;49.29;99979.47;1694412;83;20193;-89
2021/07/06 08:13:23;;;;;;;;;;;;;;;28.25;49.31;99981.04;1692634;83;20216;-92
2021/07/06 08:15:49;;;;;;;;;;;;;;;28.00;50.03;99985.20;1657574;84;20193;-93
2021/07/06 08:18:15;;;;;;;;;;;;;;;28.26;49.66;99981.84;1652439;85;20615;-90
2021/07/06 08:20:42;;;;;;;;;;;;;;;28.15;49.45;99989.22;1654774;85;20999;-91
2021/07/06 08:23:07;;;;;;;;;;;;;;;28.23;48.99;99987.30;1637700;86;20209;-87
2021/07/06 08:25:33;;;;;;;;;;;;;;;28.35;48.88;99980.17;1628901;86;20129;-88
2021/07/06 08:27:59;;;;;;;;;;;;;;;28.47;48.96;99981.21;1634959;85;20935;-89
2021/07/06 08:30:27;;;;;;;;;;;;;;;28.03;49.33;99981.92;1676575;84;20224;-93
2021/07/06 08:32:53;;;;;;;;;;;;;;;28.23;48.87;99990.02;1663873;84;21120;-91
2021/07/06 08:35:18;;;;;;;;;;;;;;;28.28;48.66;99979.13;1687665;85;20275;-94
2021/07/06 08:37:44;;;;;;;;;;;;;;;28.30;48.73;99986.99;1644299;84;20491;-91
2021/07/06 08:40:10;;;;;;;;;;;;;;;28.24;48.58;99986.19;1668386;84;20493;-95
2021/07/06 08:42:38;;;;;;;;;;;;;;;28.42;48.12;99981.25;1672094;84;20251;-96
2021/07/06 08:45:04;;;;;;;;;;;;;;;28.21;48.31;99992.73;1643149;86;21230;-87
2021/07/06 08:47:30;;;;;;;;;;;;;;;27.94;48.72;99993.33;1646031;85;20185;-90
2021/07/06 08:49:56;;;;;;;;;;;;;;;28.08;49.21;99994.15;1628570;84;20230;-89
2021/07/06 08:52:22;;;;;;;;;;;;;;;28.24;48.41;99993.53;1625116;84;20199;-93
2021/07/06 08:54:47;;;;;;;;;;;;;;;28.36;48.65;99995.39;1649237;84;20388;-94
2021/07/06 08:57:13;;;;;;;;;;;;;;;28.17;48.96;99987.05;1644109;84;21008;-95
2021/07/06 08:59:40;;;;;;;;;;;;;;;28.51;49.04;99987.72;1622713;84;20175;-92
2021/07/06 09:02:06;;;;;;;;;;;;;;;28.59;49.15;99988.51;1633366;84;20193;-90
2021/07/06 09:04:44;;;;;;;;;;;;;;;28.32;48.97;99991.59;1631554;86;20615;-92
2021/07/06 09:07:11;;;;;;;;;;;;;;;28.15;48.77;99993.28;1643086;85;20154;-91
2021/07/06 09:09:36;;;;;;;;;;;;;;;28.23;49.53;99994.09;1655889;84;20642;-89
2021/07/06 09:12:02;;;;;;;;;;;;;;;28.41;49.42;99987.76;1690788;83;20227;-83
2021/07/06 09:14:29;;;;;;;;;;;;;;;28.57;48.07;99990.67;1689216;82;20284;-83
2021/07/06 09:17:10;;;;;;;;;;;;;;;28.61;48.53;99994.47;1635857;86;20161;-86
2021/07/06 09:19:36;;;;;;;;;;;;;;;28.72;47.70;99995.78;1617556;87;20197;-92
2021/07/06 09:22:19;;;;;;;;;;;;;;;28.94;47.42;99987.20;1663895;84;21928;-90
2021/07/06 09:24:46;;;;;;;;;;;;;;;29.08;47.22;99985.45;1662321;86;20197;-90
2021/07/06 09:27:29;;;;;;;;;;;;;;;29.18;47.64;99984.58;1648386;85;20129;-90
2021/07/06 09:30:12;;;;;;;;;;;;;;;29.25;47.12;99987.80;1656167;86;20224;-90
2021/07/06 09:32:40;;;;;;;;;;;;;;;28.84;46.52;99996.25;1661422;85;20327;-90
2021/07/06 09:35:22;;;;;;;;;;;;;;;28.86;46.11;99993.25;1659766;85;21202;-91
2021/07/06 09:37:54;;;;;;;;;;;;;;;28.64;45.22;99985.75;1658238;84;20156;-90
2021/07/06 09:40:30;;;;;;;;;;;;;;;28.64;45.47;99988.47;1653086;85;20272;-88
2021/07/06 09:43:28;;;;;;;;;;;;;;;28.82;45.16;99985.66;1659333;85;20196;-89
2021/07/06 09:46:03;;;;;;;;;;;;;;;28.95;45.18;99984.75;1651027;84;20201;-88
2021/07/06 09:48:29;;;;;;;;;;;;;;;29.04;45.66;99983.58;1672810;84;22051;-86
2021/07/06 09:51:18;;;;;;;;;;;;;;;29.18;45.38;99988.10;1693727;83;20222;-84
2021/07/06 09:53:49;;;;;;;;;;;;;;;29.01;45.00;99987.70;1695123;84;20340;-92
2021/07/06 09:56:17;;;;;;;;;;;;;;;29.17;43.97;99989.19;1672502;83;20305;-91
2021/07/06 09:58:54;;;;;;;;;;;;;;;29.39;43.96;99984.43;1659283;85;20161;-89
2021/07/06 10:01:20;;;;;;;;;;;;;;;29.36;43.80;99992.04;1657847;84;21207;-90
2021/07/06 10:03:47;;;;;;;;;;;;;;;29.34;44.02;99987.45;1657550;84;20496;-86
2021/07/06 10:06:13;;;;;;;;;;;;;;;29.41;44.22;99990.38;1635679;86;33840;-86
2021/07/06 10:08:40;;;;;;;;;;;;;;;29.42;43.64;99989.30;1659435;85;20096;-91
2021/07/06 10:11:06;;;;;;;;;;;;;;;29.24;44.19;99994.35;1658657;86;20199;-91
2021/07/06 10:13:32;;;;;;;;;;;;;;;29.36;44.42;99986.60;1660150;85;21228;-91
2021/07/06 10:15:57;;;;;;;;;;;;;;;29.41;44.43;99986.30;1643626;85;20150;-86
2021/07/06 10:18:23;;;;;;;;;;;;;;;29.54;43.82;99979.64;1652973;86;20174;-89
2021/07/06 10:20:49;;;;;;;;;;;;;;;29.78;43.62;99979.41;1654894;86;20844;-89
2021/07/06 10:23:14;;;;;;;;;;;;;;;29.46;44.58;99983.00;1653314;85;20133;-86
2021/07/06 10:25:40;;;;;;;;;;;;;;;29.75;44.33;99986.80;1653185;85;21086;-90
2021/07/06 10:28:07;;;;;;;;;;;;;;;29.99;44.02;99983.56;1653381;86;20166;-89
2021/07/06 10:30:44;;;;;;;;;;;;;;;29.95;43.98;99981.15;1634672;86;20479;-94
2021/07/06 10:33:16;;;;;;;;;;;;;;;29.90;43.60;99982.02;1644064;83;20216;-87
2021/07/06 10:35:46;;;;;;;;;;;;;;;29.92;43.25;99979.00;1644450;83;20237;-91
2021/07/06 10:38:33;;;;;;;;;;;;;;;29.65;43.66;99982.28;1661638;83;20225;-91
2021/07/06 10:41:14;;;;;;;;;;;;;;;29.71;43.84;99977.84;1651911;85;20254;-92
2021/07/06 10:43:46;;;;;;;;;;;;;;;29.66;43.21;99968.38;1665397;86;20232;-94
2021/07/06 10:46:21;;;;;;;;;;;;;;;29.84;42.96;99975.56;1628703;85;20665;-92
2021/07/06 10:49:02;;;;;;;;;;;;;;;29.99;42.83;99971.30;1659713;85;20500;-92
2021/07/06 10:51:37;;;;;;;;;;;;;;;30.28;42.82;99965.50;1642641;84;21260;-93
2021/07/06 10:54:12;;;;;;;;;;;;;;;29.89;41.92;99963.25;1640032;84;20157;-92
2021/07/06 10:56:41;;;;;;;;;;;;;;;29.97;42.18;99965.35;1634915;86;20186;-89
2021/07/06 10:59:19;;;;;;;;;;;;;;;30.04;42.53;99971.23;1626855;85;20585;-90
2021/07/06 11:01:57;;;;;;;;;;;;;;;29.68;42.29;99973.53;1648663;85;20637;-91
2021/07/06 11:04:47;;;;;;;;;;;;;;;29.83;42.26;99976.13;1649259;86;20179;-91
2021/07/06 11:07:15;;;;;;;;;;;;;;;30.04;42.15;99965.80;1692163;83;20403;-90
2021/07/06 11:09:51;;;;;;;;;;;;;;;29.86;42.20;99977.44;1693342;83;20189;-91
2021/07/06 11:12:25;;;;;;;;;;;;;;;29.71;42.66;99957.99;1698119;84;20547;-91
2021/07/06 11:14:54;;;;;;;;;;;;;;;30.12;42.53;99970.34;1699640;83;20161;-90
2021/07/06 11:17:36;;;;;;;;;;;;;;;30.19;41.66;99969.41;1690023;83;21204;-92
2021/07/06 11:20:21;;;;;;;;;;;;;;;30.53;41.83;99961.64;1696006;84;20300;-87
2021/07/06 11:22:48;;;;;;;;;;;;;;;30.82;41.79;99964.78;1692299;84;20182;-88
2021/07/06 11:25:19;;;;;;;;;;;;;;;30.90;41.08;99968.19;1669908;83;20209;-93
2021/07/06 11:27:56;;;;;;;;;;;;;;;30.58;39.99;99965.68;1654261;84;20235;-92
2021/07/06 11:30:28;;;;;;;;;;;;;;;30.51;40.09;99970.67;1656929;85;21103;-91
2021/07/06 11:33:17;;;;;;;;;;;;;;;30.33;40.88;99962.17;1650230;84;20225;-90
2021/07/06 11:35:47;;;;;;;;;;;;;;;30.28;41.29;99969.03;1640980;84;20196;-94
2021/07/06 11:38:15;;;;;;;;;;;;;;;30.17;41.67;99963.46;1633084;84;20224;-92
2021/07/06 11:40:43;;;;;;;;;;;;;;;30.20;41.50;99967.77;1641652;84;20235;-92
2021/07/06 11:43:09;;;;;;;;;;;;;;;30.37;41.75;99957.73;1624504;84;21085;-92
2021/07/06 11:45:36;;;;;;;;;;;;;;;30.56;41.46;99952.88;1658754;84;20525;-94
2021/07/06 11:48:07;;;;;;;;;;;;;;;30.63;41.96;99949.24;1688009;84;20621;-92
2021/07/06 11:50:34;;;;;;;;;;;;;;;30.78;40.86;99953.10;1666238;85;20309;-89
2021/07/06 11:52:59;;;;;;;;;;;;;;;30.74;41.07;99952.06;1631282;86;20196;-90
2021/07/06 11:55:26;;;;;;;;;;;;;;;30.61;40.12;99948.73;1631412;84;21128;-91
2021/07/06 11:57:54;;;;;;;;;;;;;;;30.54;39.87;99945.56;1642636;86;20181;-83
2021/07/06 12:00:21;;;;;;;;;;;;;;;30.50;39.65;99949.97;1628846;86;20218;-85
2021/07/06 12:02:47;;;;;;;;;;;;;;;30.71;39.87;99954.02;1637284;85;20178;-83
2021/07/06 12:05:14;;;;;;;;;;;;;;;30.71;38.96;99948.56;1637714;84;20742;-87
2021/07/06 12:07:39;;;;;;;;;;;;;;;30.97;38.54;99942.75;1628674;84;21227;-85
2021/07/06 12:10:06;;;;;;;;;;;;;;;31.02;38.12;99942.66;1647159;84;20629;-87
2021/07/06 12:12:32;;;;;;;;;;;;;;;30.99;37.92;99946.55;1633050;84;20182;-88
2021/07/06 12:14:58;;;;;;;;;;;;;;;31.15;38.12;99949.25;1632784;84;20179;-85
2021/07/06 12:17:26;;;;;;;;;;;;;;;31.28;38.24;99940.87;1626072;84;20204;-85
2021/07/06 12:19:52;;;;;;;;;;;;;;;31.45;38.31;99942.45;1640450;86;21126;-91
2021/07/06 12:22:21;;;;;;;;;;;;;;;31.48;37.69;99939.13;1633631;86;20159;-86
2021/07/06 12:24:47;;;;;;;;;;;;;;;31.45;37.53;99930.74;1648356;85;20146;-87
2021/07/06 12:27:15;;;;;;;;;;;;;;;31.61;37.16;99937.54;1638249;85;20243;-87
2021/07/06 12:29:40;;;;;;;;;;;;;;;31.81;37.91;99939.06;1670295;83;20221;-85
2021/07/06 12:32:12;;;;;;;;;;;;;;;31.47;36.71;99932.03;1643124;85;21135;-90
2021/07/06 12:34:35;;;;;;;;;;;;;;;31.43;36.86;99920.66;1653241;85;20184;-88
2021/07/06 12:37:01;;;;;;;;;;;;;;;31.57;36.67;99920.17;1603250;87;20203;-90
2021/07/06 12:39:31;;;;;;;;;;;;;;;31.89;36.16;99917.63;1632199;87;20765;-89
2021/07/06 12:42:14;;;;;;;;;;;;;;;32.10;36.10;99915.28;1614310;85;20557;-88
2021/07/06 12:44:43;;;;;;;;;;;;;;;32.15;36.65;99917.36;1628973;87;21403;-91
2021/07/06 12:47:27;;;;;;;;;;;;;;;32.38;37.36;99905.09;1600011;88;20582;-87
2021/07/06 12:50:03;;;;;;;;;;;;;;;32.33;36.08;99912.88;1605502;86;20213;-92